Time;durP1;ratioP1;P1;durP2;ratioP2;P2;SDS_P1;SDS_P2;PMS_P1;PMS_P2;Temp;Humidity;BMP_temperature;BMP_pressure;BME280_temperature;BME280_humidity;BME280_pressure;Samples;Min_cycle;Max_cycle;Signal;HPM_P1;HPM_P2
2022/11/18 00:01:47;;;;;;;4.90;4.00;;;8.40;99.90;;;;;;5112335;28;20188;-73
2022/11/18 00:04:13;;;;;;;6.73;3.37;;;8.40;99.90;;;;;;5112180;28;20445;-74
2022/11/18 00:06:38;;;;;;;5.37;3.10;;;8.40;99.90;;;;;;5112354;28;20643;-72
2022/11/18 00:09:04;;;;;;;5.10;3.10;;;8.50;99.90;;;;;;5112191;28;20169;-73
2022/11/18 00:14:18;;;;;;;4.73;2.30;;;8.40;99.90;;;;;;5112332;28;20179;-72
2022/11/18 00:16:53;;;;;;;9.57;2.57;;;8.50;99.90;;;;;;5112204;28;20407;-72
2022/11/18 00:19:21;;;;;;;3.47;2.13;;;8.40;99.90;;;;;;5112320;28;20506;-72
2022/11/18 00:21:47;;;;;;;4.17;2.37;;;8.30;99.90;;;;;;5111837;28;20469;-72
2022/11/18 00:24:13;;;;;;;2.43;2.23;;;8.40;99.90;;;;;;5110548;28;20538;-73
2022/11/18 00:26:38;;;;;;;4.53;2.90;;;8.30;99.90;;;;;;5112033;28;20402;-72
2022/11/18 00:29:04;;;;;;;4.00;2.53;;;8.30;99.90;;;;;;5112142;28;20176;-72
2022/11/18 00:31:30;;;;;;;3.00;2.17;;;8.30;99.90;;;;;;5112068;28;20203;-72
2022/11/18 00:33:55;;;;;;;3.30;2.13;;;8.40;99.90;;;;;;5111908;28;20250;-73
2022/11/18 00:36:21;;;;;;;5.10;3.23;;;8.40;99.90;;;;;;5111861;28;20172;-73
2022/11/18 00:38:46;;;;;;;5.27;2.50;;;8.50;99.90;;;;;;5113002;28;20164;-72
2022/11/18 00:41:14;;;;;;;5.73;3.47;;;8.60;99.90;;;;;;5111339;28;20276;-73
2022/11/18 00:43:40;;;;;;;4.60;2.60;;;8.60;99.90;;;;;;5112130;28;20622;-72
2022/11/18 00:46:08;;;;;;;3.80;3.37;;;8.60;99.90;;;;;;5111483;28;20865;-73
2022/11/18 00:48:34;;;;;;;6.83;3.90;;;8.70;99.90;;;;;;5112048;28;20395;-72
2022/11/18 00:51:06;;;;;;;8.00;2.90;;;8.70;99.90;;;;;;5111830;28;20480;-73
2022/11/18 00:53:32;;;;;;;5.10;3.10;;;8.80;99.90;;;;;;5110724;28;20173;-73
2022/11/18 00:55:57;;;;;;;4.57;3.00;;;8.90;99.90;;;;;;5111740;28;20409;-73
2022/11/18 00:58:23;;;;;;;5.67;2.70;;;8.80;99.90;;;;;;5111757;28;20221;-73
2022/11/18 01:00:52;;;;;;;11.30;3.70;;;8.90;99.90;;;;;;5115392;28;20173;-73
2022/11/18 01:03:18;;;;;;;6.10;2.80;;;8.90;99.90;;;;;;5115704;28;20165;-73
2022/11/18 01:05:44;;;;;;;5.80;3.10;;;8.80;99.90;;;;;;5114644;28;20469;-73
2022/11/18 01:08:11;;;;;;;3.50;2.83;;;8.90;99.90;;;;;;5115517;28;20399;-73
2022/11/18 01:10:37;;;;;;;4.53;2.50;;;8.90;99.90;;;;;;5115268;28;20410;-73
2022/11/18 01:13:19;;;;;;;4.43;3.00;;;8.90;99.90;;;;;;5115501;28;20497;-72
2022/11/18 01:15:46;;;;;;;12.60;3.33;;;8.80;99.90;;;;;;5115003;28;20422;-73
2022/11/18 01:18:12;;;;;;;5.47;3.70;;;8.80;99.90;;;;;;5115314;28;20406;-73
2022/11/18 01:20:38;;;;;;;5.73;2.50;;;8.80;99.90;;;;;;5115070;28;20403;-73
2022/11/18 01:23:03;;;;;;;3.43;3.13;;;8.90;99.90;;;;;;5114853;28;20245;-73
2022/11/18 01:25:30;;;;;;;4.00;2.93;;;8.80;99.90;;;;;;5114728;28;20565;-72
2022/11/18 01:27:55;;;;;;;5.80;3.10;;;8.90;99.90;;;;;;5114950;28;20597;-72
2022/11/18 01:30:22;;;;;;;6.20;3.00;;;8.90;99.90;;;;;;5115115;28;20534;-73
2022/11/18 01:32:47;;;;;;;6.00;2.73;;;8.90;99.90;;;;;;5114814;28;20196;-72
2022/11/18 01:35:13;;;;;;;5.77;3.07;;;8.90;99.90;;;;;;5114636;28;20891;-73
2022/11/18 01:37:39;;;;;;;11.30;3.67;;;8.90;99.90;;;;;;5113702;28;20222;-72
2022/11/18 01:40:06;;;;;;;2.90;2.50;;;9.00;99.90;;;;;;5114913;28;20459;-73
2022/11/18 01:42:31;;;;;;;8.87;4.23;;;9.00;99.90;;;;;;5114837;28;20245;-73
2022/11/18 01:44:59;;;;;;;7.30;2.40;;;9.00;99.90;;;;;;5114151;28;20946;-73
2022/11/18 01:47:30;;;;;;;9.10;3.63;;;9.10;99.90;;;;;;5114876;28;20184;-73
2022/11/18 01:49:58;;;;;;;4.70;3.03;;;9.10;99.90;;;;;;5114696;27;20883;-73
2022/11/18 01:52:24;;;;;;;6.47;3.10;;;9.10;99.90;;;;;;5113268;28;20442;-72
2022/11/18 01:54:54;;;;;;;4.63;3.17;;;9.20;99.90;;;;;;5114393;28;20778;-72
2022/11/18 01:57:22;;;;;;;3.80;2.97;;;9.20;99.90;;;;;;5114718;28;20747;-72
2022/11/18 01:59:51;;;;;;;6.67;3.03;;;9.20;99.90;;;;;;5114497;28;20515;-73
2022/11/18 02:02:17;;;;;;;5.03;2.43;;;9.20;99.90;;;;;;5114448;28;20434;-73
2022/11/18 02:04:47;;;;;;;2.97;2.67;;;9.10;99.90;;;;;;5113920;28;20494;-73
2022/11/18 02:07:14;;;;;;;4.53;3.53;;;9.10;99.90;;;;;;5114125;28;20183;-73
2022/11/18 02:09:39;;;;;;;7.20;3.97;;;9.10;99.90;;;;;;5112889;28;20415;-73
2022/11/18 02:12:06;;;;;;;8.60;2.70;;;9.10;99.90;;;;;;5113227;28;20961;-73
2022/11/18 02:14:36;;;;;;;16.47;4.20;;;9.10;99.90;;;;;;5114005;28;20165;-73
2022/11/18 02:17:24;;;;;;;6.67;2.40;;;9.10;99.90;;;;;;5114241;28;20491;-72
2022/11/18 02:20:21;;;;;;;7.00;2.90;;;9.20;99.90;;;;;;5113968;27;20415;-73
2022/11/18 02:23:15;;;;;;;3.57;2.77;;;9.20;99.90;;;;;;5112614;28;20450;-72
2022/11/18 02:25:49;;;;;;;7.00;3.73;;;9.20;99.90;;;;;;5113587;28;20500;-73
2022/11/18 02:28:42;;;;;;;5.30;3.10;;;9.20;99.90;;;;;;5112437;28;20418;-74
2022/11/18 02:31:11;;;;;;;7.60;3.40;;;9.20;99.90;;;;;;5112549;28;20466;-73
2022/11/18 02:33:50;;;;;;;6.70;3.07;;;9.20;99.90;;;;;;5113821;28;20430;-73
2022/11/18 02:36:25;;;;;;;4.43;3.10;;;9.20;99.90;;;;;;5113520;28;20445;-73
2022/11/18 02:39:06;;;;;;;3.57;2.40;;;9.30;99.90;;;;;;5113244;28;20497;-73
2022/11/18 02:41:34;;;;;;;4.20;2.97;;;9.30;99.90;;;;;;5113698;28;20917;-72
2022/11/18 02:44:04;;;;;;;5.70;2.50;;;9.20;99.90;;;;;;5113487;28;20407;-72
2022/11/18 02:46:34;;;;;;;4.33;3.00;;;9.20;99.90;;;;;;5113429;28;20777;-72
2022/11/18 02:49:08;;;;;;;4.97;3.23;;;9.20;99.90;;;;;;5113416;27;20410;-72
2022/11/18 02:51:35;;;;;;;3.80;2.67;;;9.10;99.90;;;;;;5113210;28;20465;-72
2022/11/18 02:54:05;;;;;;;5.23;2.60;;;9.10;99.90;;;;;;5113354;28;20410;-72
2022/11/18 02:56:33;;;;;;;5.30;3.03;;;9.10;99.90;;;;;;5113187;28;20409;-72
2022/11/18 02:58:59;;;;;;;6.27;3.77;;;9.20;99.90;;;;;;5113237;28;20395;-72
2022/11/18 03:01:28;;;;;;;4.13;2.90;;;9.20;99.90;;;;;;5113127;28;20430;-72
2022/11/18 03:03:55;;;;;;;5.33;2.97;;;9.10;99.90;;;;;;5092780;28;20252;-72
2022/11/18 03:06:42;;;;;;;4.37;2.80;;;9.10;99.90;;;;;;5092461;28;20534;-72
2022/11/18 03:09:28;;;;;;;6.47;2.40;;;9.10;99.90;;;;;;5092825;28;20488;-72
2022/11/18 03:12:10;;;;;;;6.07;2.90;;;9.20;99.90;;;;;;5092649;28;20419;-73
2022/11/18 03:15:15;;;;;;;5.60;3.20;;;9.20;99.90;;;;;;5099401;28;20756;-72
2022/11/18 03:18:04;;;;;;;6.13;2.20;;;9.20;99.90;;;;;;5112393;28;20465;-72
2022/11/18 03:20:35;;;;;;;3.97;2.80;;;9.20;99.90;;;;;;5112938;28;20537;-73
2022/11/18 03:23:11;;;;;;;3.87;2.80;;;9.20;99.90;;;;;;5112636;28;21008;-73
2022/11/18 03:25:46;;;;;;;3.00;2.20;;;9.30;99.90;;;;;;5112407;28;20450;-72
2022/11/18 03:28:11;;;;;;;3.63;2.17;;;9.20;99.90;;;;;;5092559;28;20502;-73
2022/11/18 03:30:43;;;;;;;4.50;2.67;;;9.20;99.90;;;;;;5092381;28;20900;-72
2022/11/18 03:33:13;;;;;;;12.17;1.90;;;9.20;99.90;;;;;;5092505;28;20201;-72
2022/11/18 03:35:42;;;;;;;2.80;2.10;;;9.20;99.90;;;;;;5092240;28;20418;-73
2022/11/18 03:38:15;;;;;;;8.20;2.30;;;9.20;99.90;;;;;;5098395;28;20477;-72
2022/11/18 03:40:47;;;;;;;5.40;3.03;;;9.20;99.90;;;;;;5111437;28;20460;-73
2022/11/18 03:43:17;;;;;;;7.37;2.77;;;9.30;99.90;;;;;;5112841;28;20402;-73
2022/11/18 03:45:48;;;;;;;3.70;2.50;;;9.30;99.90;;;;;;5112371;28;20453;-72
2022/11/18 03:48:16;;;;;;;4.23;1.60;;;9.30;99.90;;;;;;5111398;28;20419;-72
2022/11/18 03:50:47;;;;;;;8.97;3.20;;;9.30;99.90;;;;;;5112323;28;20441;-73
2022/11/18 03:53:14;;;;;;;2.03;1.80;;;9.40;99.90;;;;;;5112285;28;20934;-72
2022/11/18 03:55:43;;;;;;;4.70;1.90;;;9.40;99.90;;;;;;5112187;28;20406;-73
2022/11/18 03:58:12;;;;;;;5.80;2.03;;;9.40;99.90;;;;;;5112271;28;20787;-73
2022/11/18 04:00:44;;;;;;;4.87;1.73;;;9.50;99.90;;;;;;5112382;28;20413;-73
2022/11/18 04:03:11;;;;;;;8.30;1.60;;;9.40;99.90;;;;;;5111105;28;20421;-73
2022/11/18 04:05:41;;;;;;;2.50;1.40;;;9.50;99.90;;;;;;5112133;28;20446;-72
2022/11/18 04:08:13;;;;;;;2.17;1.67;;;9.40;99.90;;;;;;5112297;28;20418;-73
2022/11/18 04:10:56;;;;;;;5.00;2.13;;;9.40;99.90;;;;;;5112417;28;20470;-73
2022/11/18 04:13:27;;;;;;;2.20;1.70;;;9.40;99.90;;;;;;5112544;28;20842;-74
2022/11/18 04:15:54;;;;;;;5.13;2.67;;;9.30;99.90;;;;;;5112163;28;20402;-73
2022/11/18 04:18:20;;;;;;;2.93;2.17;;;9.40;99.90;;;;;;5112305;28;20403;-73
2022/11/18 04:20:46;;;;;;;2.00;1.70;;;9.40;99.90;;;;;;5112010;28;20419;-72
2022/11/18 04:23:11;;;;;;;2.77;2.10;;;9.40;99.90;;;;;;5111617;28;20438;-73
2022/11/18 04:25:37;;;;;;;4.33;2.53;;;9.50;99.90;;;;;;5110803;28;20223;-73
2022/11/18 04:28:03;;;;;;;3.37;2.30;;;9.40;99.90;;;;;;5111402;28;20175;-74
2022/11/18 04:30:29;;;;;;;7.53;2.93;;;9.40;99.90;;;;;;5110060;28;20190;-73
2022/11/18 04:32:54;;;;;;;4.00;3.20;;;9.40;99.90;;;;;;5110655;28;21055;-73
2022/11/18 04:35:20;;;;;;;3.10;2.03;;;9.40;99.90;;;;;;5113656;28;20542;-73
2022/11/18 04:37:46;;;;;;;5.30;3.33;;;9.50;99.90;;;;;;5114806;28;20256;-73
2022/11/18 04:40:11;;;;;;;3.83;2.37;;;9.40;99.90;;;;;;5114754;28;20653;-73
2022/11/18 04:42:37;;;;;;;5.67;2.33;;;9.40;99.90;;;;;;5114745;28;20666;-73
2022/11/18 04:45:04;;;;;;;6.27;2.37;;;9.30;99.90;;;;;;5114051;28;20220;-73
2022/11/18 04:47:29;;;;;;;2.47;2.13;;;9.30;99.90;;;;;;5114615;28;20161;-73
2022/11/18 04:49:55;;;;;;;2.80;2.17;;;9.30;99.90;;;;;;5113648;28;20413;-73
2022/11/18 04:52:21;;;;;;;5.20;2.57;;;9.30;99.90;;;;;;5114515;28;20200;-72
2022/11/18 04:54:46;;;;;;;6.50;2.27;;;9.30;99.90;;;;;;5114282;28;20173;-72
2022/11/18 04:57:12;;;;;;;4.47;3.07;;;9.30;99.90;;;;;;5114254;28;20191;-72
2022/11/18 04:59:38;;;;;;;3.23;2.10;;;9.30;99.90;;;;;;5114431;28;20251;-72
2022/11/18 05:02:04;;;;;;;2.87;2.27;;;9.40;99.90;;;;;;5114410;28;20275;-72
2022/11/18 05:04:31;;;;;;;2.60;1.80;;;9.40;99.90;;;;;;5113979;28;20218;-72
2022/11/18 05:06:58;;;;;;;3.07;1.73;;;9.50;99.90;;;;;;5114333;28;20402;-72
2022/11/18 05:09:25;;;;;;;2.87;1.53;;;9.50;99.90;;;;;;5114019;28;20424;-72
2022/11/18 05:14:35;;;;;;;17.60;8.73;;;9.50;99.90;;;;;;5114348;28;20398;-73
2022/11/18 05:17:03;;;;;;;15.63;6.70;;;9.40;99.90;;;;;;5114201;28;20403;-73
2022/11/18 05:19:28;;;;;;;3.77;2.00;;;9.40;99.90;;;;;;5113975;28;20169;-73
2022/11/18 05:21:54;;;;;;;4.47;1.70;;;9.40;99.90;;;;;;5076881;28;1056891;-72
2022/11/18 05:24:19;;;;;;;2.20;1.50;;;9.40;99.90;;;;;;5114884;28;20164;-73
2022/11/18 05:26:45;;;;;;;4.40;1.63;;;9.40;99.90;;;;;;5115127;28;20172;-73
2022/11/18 05:29:11;;;;;;;3.23;1.10;;;9.30;99.90;;;;;;5115231;28;20161;-73
2022/11/18 05:31:37;;;;;;;4.33;1.77;;;9.30;99.90;;;;;;5114471;28;20188;-73
2022/11/18 05:34:02;;;;;;;4.20;1.33;;;9.30;99.90;;;;;;5113426;28;20413;-73
2022/11/18 05:36:28;;;;;;;3.00;1.37;;;9.30;99.90;;;;;;5113964;28;20215;-72
2022/11/18 05:38:53;;;;;;;5.20;1.20;;;9.30;99.90;;;;;;5114385;28;20180;-73
2022/11/18 05:44:03;;;;;;;3.90;1.47;;;9.30;99.90;;;;;;5114672;28;20226;-73
2022/11/18 05:46:30;;;;;;;2.80;1.53;;;9.20;99.90;;;;;;5113192;28;20495;-73
2022/11/18 05:48:56;;;;;;;7.93;1.53;;;9.20;99.90;;;;;;5114386;28;20416;-73
2022/11/18 05:51:22;;;;;;;3.47;1.57;;;9.30;99.90;;;;;;5114455;28;20513;-73
2022/11/18 05:53:49;;;;;;;3.27;2.10;;;9.30;99.90;;;;;;5114242;28;20169;-73
2022/11/18 05:56:23;;;;;;;3.87;1.73;;;9.30;99.90;;;;;;5114428;28;20175;-73
2022/11/18 05:58:48;;;;;;;1.80;1.60;;;9.20;99.90;;;;;;5114555;28;20414;-73
2022/11/18 06:01:22;;;;;;;3.23;2.07;;;9.10;99.90;;;;;;5114273;28;20427;-73
2022/11/18 06:03:47;;;;;;;2.67;1.53;;;9.10;99.90;;;;;;5114706;28;20164;-73
2022/11/18 06:06:16;;;;;;;2.30;1.97;;;9.00;99.90;;;;;;5114149;28;20454;-73
2022/11/18 06:08:53;;;;;;;4.80;1.67;;;8.90;99.90;;;;;;5112840;28;20169;-72
2022/11/18 06:11:20;;;;;;;2.43;1.97;;;8.80;99.90;;;;;;5114353;28;20437;-72
2022/11/18 06:13:54;;;;;;;5.97;2.43;;;8.80;99.90;;;;;;5114447;28;20458;-73
2022/11/18 06:16:25;;;;;;;2.43;1.60;;;8.70;99.90;;;;;;5114026;27;20402;-72
2022/11/18 06:18:51;;;;;;;3.50;1.80;;;8.70;99.90;;;;;;5114173;27;20402;-73
2022/11/18 06:21:16;;;;;;;2.93;1.73;;;8.60;99.90;;;;;;5112865;28;20446;-73
2022/11/18 06:23:42;;;;;;;3.43;2.00;;;8.60;99.90;;;;;;5113638;28;20193;-72
2022/11/18 06:26:10;;;;;;;2.40;1.80;;;8.50;99.90;;;;;;5113586;27;20197;-73
2022/11/18 06:28:36;;;;;;;3.83;2.10;;;8.50;99.90;;;;;;5113949;27;20395;-72
2022/11/18 06:31:02;;;;;;;2.50;1.77;;;8.60;99.90;;;;;;5113910;28;20427;-73
2022/11/18 06:33:27;;;;;;;5.20;2.27;;;8.60;99.90;;;;;;5113347;28;20222;-73
2022/11/18 06:35:53;;;;;;;5.00;2.20;;;8.60;99.90;;;;;;5113503;28;20222;-73
2022/11/18 06:38:18;;;;;;;6.10;3.03;;;8.60;99.90;;;;;;5113731;28;20169;-74
2022/11/18 06:40:44;;;;;;;3.83;2.10;;;8.60;99.90;;;;;;5113620;28;20165;-73
2022/11/18 06:48:43;;;;;;;4.10;1.90;;;8.60;99.90;;;;;;5113851;28;20488;-73
2022/11/18 06:51:09;;;;;;;3.13;2.30;;;8.60;99.90;;;;;;5113495;27;20422;-72
2022/11/18 06:53:35;;;;;;;2.50;2.20;;;8.60;99.90;;;;;;5113451;28;20165;-73
2022/11/18 06:56:05;;;;;;;3.17;2.33;;;8.60;99.90;;;;;;5111516;28;20792;-73
2022/11/18 06:58:31;;;;;;;5.13;2.50;;;8.70;99.90;;;;;;5112627;28;20177;-73
2022/11/18 07:00:56;;;;;;;3.50;1.87;;;8.60;99.90;;;;;;5113229;28;20475;-73
2022/11/18 07:03:22;;;;;;;3.97;1.70;;;8.60;99.90;;;;;;5113465;28;20169;-74
2022/11/18 07:05:47;;;;;;;4.80;2.57;;;8.60;99.90;;;;;;5112879;28;20192;-73
2022/11/18 07:08:13;;;;;;;3.87;2.93;;;8.60;99.90;;;;;;5113063;28;20169;-73
2022/11/18 07:10:38;;;;;;;3.17;2.63;;;8.60;99.90;;;;;;5113234;28;20172;-73
2022/11/18 07:13:04;;;;;;;2.80;2.27;;;8.70;99.90;;;;;;5111805;28;20188;-73
2022/11/18 07:15:29;;;;;;;4.50;2.50;;;8.80;99.90;;;;;;5112837;28;20523;-73
2022/11/18 07:17:55;;;;;;;6.27;2.73;;;8.80;99.90;;;;;;5113225;28;20165;-73
2022/11/18 07:20:20;;;;;;;4.70;2.67;;;8.80;99.90;;;;;;5112683;28;20211;-73
2022/11/18 07:22:46;;;;;;;5.00;1.90;;;8.90;99.90;;;;;;5112826;28;20257;-72
2022/11/18 07:25:12;;;;;;;2.70;1.93;;;8.90;99.90;;;;;;5112559;28;20242;-73
2022/11/18 07:27:37;;;;;;;3.10;1.80;;;9.00;99.90;;;;;;5112260;28;20575;-73
2022/11/18 07:30:03;;;;;;;3.57;2.73;;;9.00;99.90;;;;;;5112630;28;20172;-73
2022/11/18 07:32:28;;;;;;;6.80;2.67;;;9.10;99.90;;;;;;5112703;28;20226;-73
2022/11/18 07:34:54;;;;;;;4.33;1.77;;;9.10;99.90;;;;;;5112400;28;20165;-73
2022/11/18 07:37:19;;;;;;;3.70;2.23;;;9.20;99.90;;;;;;5111089;28;20173;-73
2022/11/18 07:39:45;;;;;;;5.23;2.10;;;9.20;99.90;;;;;;5112527;28;20180;-73
2022/11/18 07:42:10;;;;;;;2.80;2.10;;;9.30;99.90;;;;;;5112446;28;20195;-73
2022/11/18 07:44:36;;;;;;;4.40;2.17;;;9.40;99.90;;;;;;5112167;28;20228;-72
2022/11/18 07:47:01;;;;;;;2.70;2.50;;;9.40;99.90;;;;;;5112160;28;20657;-73
2022/11/18 07:49:27;;;;;;;2.63;1.77;;;9.50;99.90;;;;;;5112551;28;20240;-73
2022/11/18 07:51:53;;;;;;;4.13;2.03;;;9.60;99.90;;;;;;5112518;28;20185;-73
2022/11/18 07:54:18;;;;;;;2.63;2.27;;;9.60;99.90;;;;;;5112271;28;20163;-72
2022/11/18 07:56:44;;;;;;;11.73;2.57;;;9.80;99.90;;;;;;5112484;28;20398;-72
2022/11/18 07:59:10;;;;;;;3.03;2.50;;;9.80;99.90;;;;;;5112234;28;20176;-73
2022/11/18 08:01:35;;;;;;;3.60;2.03;;;9.90;99.90;;;;;;5112100;28;20565;-72
2022/11/18 08:04:09;;;;;;;3.40;2.30;;;10.10;99.90;;;;;;5111989;28;20414;-73
2022/11/18 08:06:35;;;;;;;5.57;2.50;;;10.20;99.90;;;;;;5110070;28;20176;-72
2022/11/18 08:09:01;;;;;;;2.23;1.87;;;10.40;99.90;;;;;;5113276;28;20405;-73
2022/11/18 08:11:27;;;;;;;7.80;2.57;;;10.40;99.90;;;;;;5116283;28;20923;-74
2022/11/18 08:13:52;;;;;;;2.90;2.00;;;10.50;99.90;;;;;;5116677;28;20429;-74
2022/11/18 08:16:21;;;;;;;6.80;2.70;;;10.70;99.90;;;;;;5115136;28;20310;-73
2022/11/18 08:18:47;;;;;;;3.33;2.43;;;10.80;99.90;;;;;;5116547;28;20200;-74
2022/11/18 08:21:14;;;;;;;4.57;2.20;;;10.90;99.90;;;;;;5115201;28;20469;-73
2022/11/18 08:23:40;;;;;;;3.03;1.90;;;11.00;99.90;;;;;;5115754;28;20927;-74
2022/11/18 08:26:13;;;;;;;4.27;2.13;;;11.10;99.90;;;;;;5115973;28;20449;-73
2022/11/18 08:28:40;;;;;;;2.80;2.10;;;11.30;99.90;;;;;;5116049;28;20183;-73
2022/11/18 08:31:13;;;;;;;2.67;1.80;;;11.60;99.90;;;;;;5116084;28;20423;-73
2022/11/18 08:33:38;;;;;;;3.33;2.20;;;12.10;99.90;;;;;;5116109;28;20403;-73
2022/11/18 08:36:07;;;;;;;3.83;2.47;;;12.70;99.90;;;;;;5114970;28;20441;-73
2022/11/18 08:38:32;;;;;;;1.83;1.23;;;13.60;99.90;;;;;;5114709;28;20177;-74
2022/11/18 08:40:58;;;;;;;2.87;1.20;;;14.40;99.90;;;;;;5115918;28;20449;-73
2022/11/18 08:43:23;;;;;;;3.10;1.50;;;15.20;99.90;;;;;;5116010;28;20510;-73
2022/11/18 08:45:49;;;;;;;1.47;1.10;;;15.30;99.90;;;;;;5115580;28;20201;-73
2022/11/18 08:48:14;;;;;;;4.60;1.47;;;15.40;99.90;;;;;;5115656;28;20659;-73
2022/11/18 08:50:40;;;;;;;4.87;1.17;;;15.50;99.90;;;;;;5115728;28;20240;-73
2022/11/18 08:53:05;;;;;;;2.03;1.50;;;16.00;99.90;;;;;;5115771;28;20157;-74
2022/11/18 08:55:31;;;;;;;3.47;1.60;;;16.20;99.90;;;;;;5115422;28;20652;-74
2022/11/18 08:57:56;;;;;;;4.43;1.10;;;16.60;99.90;;;;;;5115711;28;20169;-73
2022/11/18 09:00:22;;;;;;;4.77;1.57;;;16.80;99.90;;;;;;5115410;28;20184;-73
2022/11/18 09:02:47;;;;;;;6.73;1.10;;;17.00;99.90;;;;;;5115541;28;20876;-74
2022/11/18 09:05:13;;;;;;;4.67;1.87;;;17.40;99.90;;;;;;5115293;28;20193;-74
2022/11/18 09:07:38;;;;;;;1.93;0.90;;;17.30;99.90;;;;;;5115213;28;20589;-74
2022/11/18 09:10:04;;;;;;;2.07;1.30;;;17.90;99.90;;;;;;5115447;28;20169;-73
2022/11/18 09:12:30;;;;;;;3.10;1.63;;;18.10;99.90;;;;;;5115254;28;20478;-73
2022/11/18 09:14:55;;;;;;;2.30;1.73;;;18.60;99.90;;;;;;5115133;28;20403;-72
2022/11/18 09:17:21;;;;;;;1.50;1.33;;;19.00;99.90;;;;;;5115073;28;20599;-73
2022/11/18 09:19:47;;;;;;;3.77;1.20;;;19.30;99.90;;;;;;5114926;28;20200;-73
2022/11/18 09:22:12;;;;;;;5.40;2.03;;;19.40;99.90;;;;;;5113823;28;20208;-74
2022/11/18 09:24:39;;;;;;;3.63;1.77;;;19.60;99.90;;;;;;5114665;28;20201;-73
2022/11/18 09:27:06;;;;;;;5.13;1.70;;;19.60;99.90;;;;;;5115141;28;20161;-73
2022/11/18 09:29:32;;;;;;;1.87;1.07;;;19.10;98.50;;;;;;5114955;28;20439;-73
2022/11/18 09:32:00;;;;;;;3.07;1.40;;;19.10;99.80;;;;;;5114650;28;20489;-74
2022/11/18 09:34:27;;;;;;;4.50;1.97;;;18.80;99.90;;;;;;5114831;28;20994;-74
2022/11/18 09:36:54;;;;;;;3.50;1.67;;;18.60;99.90;;;;;;5114982;28;20451;-73
2022/11/18 09:39:20;;;;;;;2.47;1.67;;;18.70;99.40;;;;;;5114941;28;20512;-73
2022/11/18 09:41:50;;;;;;;2.13;1.23;;;18.30;99.90;;;;;;5114515;28;20442;-74
2022/11/18 09:44:44;;;;;;;1.67;1.27;;;18.20;99.90;;;;;;5114500;28;20426;-73
2022/11/18 09:47:26;;;;;;;2.53;1.00;;;18.10;99.90;;;;;;5114745;28;20391;-74
2022/11/18 09:49:55;;;;;;;1.77;1.20;;;18.70;99.90;;;;;;5114753;28;20883;-73
2022/11/18 09:52:25;;;;;;;3.57;1.13;;;19.00;98.90;;;;;;5114275;28;21106;-74
2022/11/18 09:54:51;;;;;;;2.90;1.27;;;19.30;96.80;;;;;;5114300;28;20406;-74
2022/11/18 09:57:24;;;;;;;5.03;1.60;;;19.50;97.50;;;;;;5114605;28;20406;-74
2022/11/18 09:59:50;;;;;;;2.27;1.30;;;20.30;97.70;;;;;;5114486;28;20196;-73
2022/11/18 10:02:26;;;;;;;3.13;1.53;;;21.20;91.30;;;;;;5114119;28;20430;-73
2022/11/18 10:04:54;;;;;;;2.30;1.27;;;22.00;91.40;;;;;;5114157;28;20453;-74
2022/11/18 10:07:26;;;;;;;6.60;1.30;;;22.60;78.20;;;;;;5113143;28;20454;-74
2022/11/18 10:09:55;;;;;;;2.27;1.30;;;22.20;75.00;;;;;;5114149;28;20777;-74
2022/11/18 10:12:42;;;;;;;2.80;1.73;;;22.50;75.50;;;;;;5092601;28;20768;-74
2022/11/18 10:15:22;;;;;;;1.67;1.10;;;22.90;73.50;;;;;;5092356;28;20411;-74
2022/11/18 10:18:04;;;;;;;6.83;1.63;;;23.70;70.80;;;;;;5093840;28;20411;-74
2022/11/18 10:20:41;;;;;;;2.60;1.40;;;24.50;68.10;;;;;;5098770;28;20418;-74
2022/11/18 10:23:23;;;;;;;3.90;1.43;;;25.20;65.40;;;;;;5113991;28;20844;-73
2022/11/18 10:25:48;;;;;;;4.37;1.23;;;25.70;59.30;;;;;;5113584;28;20450;-73
2022/11/18 10:28:28;;;;;;;2.20;1.00;;;25.90;58.90;;;;;;5113677;28;20475;-73
2022/11/18 10:31:02;;;;;;;3.30;2.00;;;26.60;56.80;;;;;;5113831;28;20175;-74
2022/11/18 10:33:28;;;;;;;1.23;1.03;;;26.80;56.20;;;;;;5113046;28;20387;-72
2022/11/18 10:36:10;;;;;;;1.70;1.10;;;28.00;55.60;;;;;;5113625;28;20398;-71
2022/11/18 10:38:36;;;;;;;4.20;1.33;;;29.20;53.10;;;;;;5113506;28;20179;-71
2022/11/18 10:41:07;;;;;;;4.03;1.47;;;29.80;50.50;;;;;;5113558;28;20505;-74
2022/11/18 10:43:50;;;;;;;2.47;1.10;;;29.50;48.80;;;;;;5113555;28;20203;-74
2022/11/18 10:46:24;;;;;;;6.10;1.43;;;28.90;48.30;;;;;;5113291;28;20518;-75
2022/11/18 10:49:16;;;;;;;3.33;1.10;;;28.00;50.00;;;;;;5113627;28;20456;-74
2022/11/18 10:52:02;;;;;;;3.87;1.50;;;27.30;49.40;;;;;;5083638;28;20778;-74
2022/11/18 10:54:28;;;;;;;2.70;1.37;;;26.80;49.80;;;;;;5092837;28;20396;-73
2022/11/18 10:57:12;;;;;;;4.10;1.67;;;25.60;50.20;;;;;;5093072;28;20398;-73
2022/11/18 10:59:50;;;;;;;2.60;1.37;;;23.70;52.30;;;;;;5093044;28;20537;-74
2022/11/18 11:02:31;;;;;;;3.70;1.67;;;22.40;54.60;;;;;;5102043;28;20444;-73
2022/11/18 11:05:00;;;;;;;4.97;1.50;;;21.80;56.80;;;;;;5112784;28;20454;-73
2022/11/18 11:07:31;;;;;;;2.10;1.20;;;21.30;57.70;;;;;;5113299;28;20395;-74
2022/11/18 11:09:59;;;;;;;3.50;1.60;;;20.60;58.50;;;;;;5113199;28;20417;-73
2022/11/18 11:12:28;;;;;;;1.73;1.17;;;20.50;60.30;;;;;;5113015;28;20419;-73
2022/11/18 11:14:56;;;;;;;1.40;0.83;;;21.40;61.30;;;;;;5112542;28;20918;-74
2022/11/18 11:17:46;;;;;;;5.70;1.83;;;21.50;59.30;;;;;;5113004;28;20406;-74
2022/11/18 11:20:21;;;;;;;4.33;2.07;;;21.00;60.20;;;;;;5112954;28;20407;-74
2022/11/18 11:22:47;;;;;;;5.23;1.60;;;20.90;61.20;;;;;;5112691;28;20445;-74
2022/11/18 11:25:25;;;;;;;2.97;1.73;;;20.40;61.50;;;;;;5112301;28;20450;-73
2022/11/18 11:28:07;;;;;;;6.60;1.43;;;19.50;64.10;;;;;;5112749;28;20418;-74
2022/11/18 11:30:45;;;;;;;5.47;1.80;;;18.70;69.70;;;;;;5112832;28;20387;-73
2022/11/18 11:33:21;;;;;;;2.00;1.23;;;18.10;76.10;;;;;;5112902;28;20809;-73
2022/11/18 11:36:00;;;;;;;2.87;1.40;;;18.10;84.40;;;;;;5112511;28;20433;-73
2022/11/18 11:38:33;;;;;;;1.40;1.10;;;18.40;83.40;;;;;;5112483;28;20414;-73
2022/11/18 11:41:02;;;;;;;2.90;1.43;;;18.80;84.60;;;;;;5112613;28;20430;-74
2022/11/18 11:43:30;;;;;;;2.60;1.10;;;19.20;85.00;;;;;;5112589;28;20497;-73
2022/11/18 11:46:16;;;;;;;5.17;1.77;;;19.30;83.80;;;;;;5112134;28;20446;-72
2022/11/18 11:49:01;;;;;;;2.80;1.10;;;19.50;82.70;;;;;;5111263;28;20423;-73
2022/11/18 11:51:43;;;;;;;3.27;1.13;;;19.30;80.90;;;;;;5111924;28;20939;-73
2022/11/18 11:54:30;;;;;;;3.30;1.40;;;19.20;82.40;;;;;;5112491;28;20440;-73
2022/11/18 11:57:11;;;;;;;5.80;2.40;;;19.80;83.60;;;;;;5111187;28;20415;-74
2022/11/18 11:59:49;;;;;;;2.57;1.20;;;20.60;77.40;;;;;;5112404;28;20496;-73
2022/11/18 12:02:40;;;;;;;5.97;1.53;;;21.60;75.30;;;;;;5112193;28;20474;-73
2022/11/18 12:05:21;;;;;;;5.97;2.00;;;21.90;72.00;;;;;;5112101;28;20461;-73
2022/11/18 12:07:55;;;;;;;4.63;1.47;;;23.10;69.60;;;;;;5112299;28;20849;-73
2022/11/18 12:10:29;;;;;;;10.47;1.73;;;24.40;64.00;;;;;;5111128;28;20409;-74
2022/11/18 12:13:17;;;;;;;4.57;1.23;;;24.50;59.80;;;;;;5112217;28;20425;-74
2022/11/18 12:16:24;;;;;;;3.60;1.40;;;24.30;58.40;;;;;;5091663;28;20408;-74
2022/11/18 12:18:50;;;;;;;2.93;1.37;;;24.20;58.50;;;;;;5075638;28;20446;-73
2022/11/18 12:21:48;;;;;;;2.50;1.10;;;24.30;57.60;;;;;;5091814;28;20450;-74
2022/11/18 12:24:24;;;;;;;8.17;1.97;;;23.90;58.80;;;;;;5068394;28;20268;-73
2022/11/18 12:26:50;;;;;;;2.80;1.57;;;23.30;58.30;;;;;;5103187;28;20471;-73
2022/11/18 12:29:18;;;;;;;2.10;1.47;;;22.30;59.60;;;;;;5112247;28;20418;-73
2022/11/18 12:31:53;;;;;;;2.60;1.40;;;21.40;60.60;;;;;;5111967;28;20506;-72
2022/11/18 12:34:25;;;;;;;5.03;1.70;;;21.00;64.30;;;;;;5111878;28;20394;-72
2022/11/18 12:36:52;;;;;;;2.80;1.33;;;20.20;66.30;;;;;;5110708;28;20406;-73
2022/11/18 12:39:24;;;;;;;6.77;1.77;;;19.50;68.20;;;;;;5111840;28;20406;-73
2022/11/18 12:44:35;;;;;;;5.73;1.37;;;18.80;77.70;;;;;;5111862;28;20366;-74
2022/11/18 12:47:08;;;;;;;2.27;1.30;;;18.30;83.00;;;;;;5111788;28;20398;-74
2022/11/18 12:49:37;;;;;;;5.10;1.87;;;18.20;86.90;;;;;;5111871;28;20478;-73
2022/11/18 12:52:28;;;;;;;4.63;1.97;;;18.10;90.30;;;;;;5091452;28;20500;-73
2022/11/18 12:54:55;;;;;;;2.67;1.37;;;18.10;92.30;;;;;;5091756;28;20403;-73
2022/11/18 12:57:23;;;;;;;6.13;1.70;;;18.50;91.30;;;;;;5095489;28;20407;-73
2022/11/18 12:59:50;;;;;;;3.50;1.60;;;19.70;89.20;;;;;;5095022;28;20403;-73
2022/11/18 13:02:27;;;;;;;2.07;1.10;;;20.90;76.90;;;;;;5099390;28;20534;-73
2022/11/18 13:05:19;;;;;;;6.27;1.43;;;21.10;74.00;;;;;;5115301;27;20966;-74
2022/11/18 13:08:13;;;;;;;4.53;1.40;;;21.00;73.00;;;;;;5115654;28;20756;-73
2022/11/18 13:13:44;;;;;;;1.50;1.20;;;20.40;72.50;;;;;;5115698;28;20476;-74
2022/11/18 13:19:03;;;;;;;3.63;1.50;;;19.10;76.40;;;;;;5115344;28;20443;-74
2022/11/18 13:24:19;;;;;;;3.10;1.70;;;18.20;87.70;;;;;;5115073;28;20191;-74
2022/11/18 13:26:46;;;;;;;4.73;1.50;;;18.20;90.20;;;;;;5114861;28;20822;-73
2022/11/18 13:29:43;;;;;;;5.83;1.90;;;18.40;89.30;;;;;;5115138;28;20395;-74
2022/11/18 13:32:22;;;;;;;2.57;1.83;;;18.40;90.00;;;;;;5115114;28;20476;-73
2022/11/18 13:34:57;;;;;;;1.67;1.20;;;18.40;91.20;;;;;;5113637;28;20463;-73